Flight Number: EUR2114 Duration: 1:00
Departure: Budapest Ferihegy (LHBP) at 21:30 Distance: 306 Nm
Arrival: Munich Int'l (EDDM) at 22:30 Equipment: DHC8

Weather Information
Budapest / Ferihegy, Hungary (LHBP) 47-26N 019-16E 185M Oct 19, 2018 - 02:30 PM EDT / 2018.10.19 1830 UTC
Wind: Variable at 2 MPH (2 KT):0
Visibility: greater than 7 mile(s):0 Weather: shallow fog Temperature: 55 F (13 C) Dew Point: 55 F (13 C) Relative Humidity: 100% Pressure (altimeter): 30.15 in. Hg (1021 hPa)
ob: LHBP 191830Z VRB02KT 9999 MIFG NSC 13/13 Q1021 NOSIG cycle: 18
Sunrise: 05:11 Sunset: 15:44 (UTC)

Munchen, Germany (EDDM) 48-21N 011-47E Oct 19, 2018 - 02:50 PM EDT / 2018.10.19 1850 UTC
Wind: Calm:0
Visibility: 4 mile(s):0 Temperature: 46 F (8 C) Dew Point: 46 F (8 C) Relative Humidity: 100% Pressure (altimeter): 30.21 in. Hg (1023 hPa)
ob: EDDM 191850Z 00000KT 8000 NSC 08/08 Q1023 NOSIG cycle: 19
Sunrise: 05:42 Sunset: 16:12 (UTC)

TAF:2018/10/19 18:44 TAF EDDM 191700Z 1918/2024 VRB02KT 8000 NSC BECMG 1921/1924 2000 BCFG PROB30 TEMPO 2001/2009 0700 FG BECMG 2009/2011 7000 BKN013 BECMG 2011/2013 34006KT SCT013 BECMG 2016/2018 VRB03KT PROB30 TEMPO 2022/2024 3000 BCFG

Previous Pireps for this route
Date Aircraft Flight time Fuel used Landing rate On time
2018-05-18B73701.357402-376Charter
(pireps marked green are flown by you)

Route map